Portada
METAR-TAF:

METAR-TAF

Aeroports :

Centralia Municipal Airport

Centralia, Illinois, Estats Units d'Amèrica

latitud: 38-30-53N, longitud: 089-05-32W, altitud: 163 m

Observació

L'informe es va fer fa 7 minuts, a les 18:35 UTC
Vent 10 kt del Sud/Sud-Est
Temperatura 27°C
Humitat 70%
Pressió 1014 hPa
Visibilitat: 16.1 km
Cel ennuvolat a una alçada de 3400 ft
Cel ennuvolat a una alçada de 4500 ft
Cel ennuvolat a una alçada de 12000 ft

METAR: KENL 261835Z AUTO 16010KT 10SM BKN034 BKN045 BKN120 27/21 A2995 RMK AO2 T02700211

Hora: 13:42 (18:42 UTC)


TAF: manca

Observacions i pronòstics meteorològics de més de 4000 aeroports (METAR i TAF).

Les estacions disponibles són els punts grocs i vermells al mapa.

Posi el ratolí al punt desitjat per veure el nom de l'estació.

Feu clic per veure les observacions i els pronòstics meteorològics.

Per canviar el mapa: feu clic els botons verds amb una creu de color negre per apropar; al botó verd amb un guió per allunyar la imatge; o en les fletxes verdes per a mapes adjacents.


METAR-TAF: